sensor_id;sensor_type;location;lat;lon;timestamp;pressure;altitude;pressure_sealevel;temperature;humidity
51460;BME280;37534;39.772;2.718;2022-08-19T00:01:47;101357.28;;;21.67;100.00
51460;BME280;37534;39.772;2.718;2022-08-19T00:04:15;101343.31;;;21.67;100.00
51460;BME280;37534;39.772;2.718;2022-08-19T00:06:42;101338.47;;;21.60;100.00
51460;BME280;37534;39.772;2.718;2022-08-19T00:09:11;101338.72;;;21.70;100.00
51460;BME280;37534;39.772;2.718;2022-08-19T00:11:38;101326.97;;;21.76;100.00
51460;BME280;37534;39.772;2.718;2022-08-19T00:14:05;101331.63;;;21.85;100.00
51460;BME280;37534;39.772;2.718;2022-08-19T00:16:31;101331.84;;;21.82;100.00
51460;BME280;37534;39.772;2.718;2022-08-19T00:18:57;101318.81;;;21.80;100.00
51460;BME280;37534;39.772;2.718;2022-08-19T00:21:24;101320.09;;;21.88;100.00
51460;BME280;37534;39.772;2.718;2022-08-19T00:23:52;101317.84;;;21.81;100.00
51460;BME280;37534;39.772;2.718;2022-08-19T00:26:17;101317.75;;;21.83;100.00
51460;BME280;37534;39.772;2.718;2022-08-19T00:28:43;101323.34;;;22.06;100.00
51460;BME280;37534;39.772;2.718;2022-08-19T00:31:09;101318.34;;;22.15;100.00
51460;BME280;37534;39.772;2.718;2022-08-19T00:33:35;101318.50;;;21.99;100.00
51460;BME280;37534;39.772;2.718;2022-08-19T00:36:02;101340.34;;;22.00;100.00
51460;BME280;37534;39.772;2.718;2022-08-19T00:38:29;101360.72;;;21.96;100.00
51460;BME280;37534;39.772;2.718;2022-08-19T00:40:55;101380.69;;;21.99;100.00
51460;BME280;37534;39.772;2.718;2022-08-19T00:43:23;101362.56;;;22.09;100.00
51460;BME280;37534;39.772;2.718;2022-08-19T00:45:49;101373.97;;;21.80;100.00
51460;BME280;37534;39.772;2.718;2022-08-19T00:48:16;101395.28;;;21.61;100.00
51460;BME280;37534;39.772;2.718;2022-08-19T00:50:43;101372.13;;;21.54;100.00
51460;BME280;37534;39.772;2.718;2022-08-19T00:53:11;101378.84;;;21.72;100.00
51460;BME280;37534;39.772;2.718;2022-08-19T00:55:38;101377.91;;;21.88;100.00
51460;BME280;37534;39.772;2.718;2022-08-19T00:58:08;101373.28;;;21.91;100.00
51460;BME280;37534;39.772;2.718;2022-08-19T01:00:37;101360.91;;;21.93;100.00
51460;BME280;37534;39.772;2.718;2022-08-19T01:03:05;101360.41;;;22.01;100.00
51460;BME280;37534;39.772;2.718;2022-08-19T01:05:31;101373.84;;;21.96;100.00
51460;BME280;37534;39.772;2.718;2022-08-19T01:07:59;101372.66;;;21.88;100.00
51460;BME280;37534;39.772;2.718;2022-08-19T01:10:28;101363.56;;;21.79;100.00
51460;BME280;37534;39.772;2.718;2022-08-19T01:12:55;101363.31;;;21.69;100.00
51460;BME280;37534;39.772;2.718;2022-08-19T01:15:26;101356.72;;;21.62;100.00
51460;BME280;37534;39.772;2.718;2022-08-19T01:17:55;101345.13;;;21.52;100.00
51460;BME280;37534;39.772;2.718;2022-08-19T01:20:23;101353.56;;;21.57;100.00
51460;BME280;37534;39.772;2.718;2022-08-19T01:22:55;101335.75;;;21.48;100.00
51460;BME280;37534;39.772;2.718;2022-08-19T01:25:28;101350.06;;;21.42;100.00
51460;BME280;37534;39.772;2.718;2022-08-19T01:27:54;101352.50;;;21.31;100.00
51460;BME280;37534;39.772;2.718;2022-08-19T01:30:27;101346.22;;;21.19;100.00
51460;BME280;37534;39.772;2.718;2022-08-19T01:32:54;101350.25;;;21.10;100.00
51460;BME280;37534;39.772;2.718;2022-08-19T01:35:22;101341.13;;;21.01;100.00
51460;BME280;37534;39.772;2.718;2022-08-19T01:37:54;101331.88;;;20.96;100.00
51460;BME280;37534;39.772;2.718;2022-08-19T01:40:22;101338.72;;;20.98;100.00
51460;BME280;37534;39.772;2.718;2022-08-19T01:42:49;101335.97;;;21.00;100.00
51460;BME280;37534;39.772;2.718;2022-08-19T01:45:16;101327.84;;;20.90;100.00
51460;BME280;37534;39.772;2.718;2022-08-19T01:47:42;101318.81;;;20.80;100.00
51460;BME280;37534;39.772;2.718;2022-08-19T01:50:09;101339.63;;;20.83;100.00
51460;BME280;37534;39.772;2.718;2022-08-19T01:52:39;101329.78;;;20.72;100.00
51460;BME280;37534;39.772;2.718;2022-08-19T01:55:07;101336.59;;;20.75;100.00
51460;BME280;37534;39.772;2.718;2022-08-19T01:57:33;101341.38;;;20.68;100.00
51460;BME280;37534;39.772;2.718;2022-08-19T01:59:59;101327.59;;;20.64;100.00
51460;BME280;37534;39.772;2.718;2022-08-19T02:02:28;101334.25;;;20.70;100.00
51460;BME280;37534;39.772;2.718;2022-08-19T02:04:53;101335.59;;;20.77;100.00
51460;BME280;37534;39.772;2.718;2022-08-19T02:07:22;101337.25;;;20.78;100.00
51460;BME280;37534;39.772;2.718;2022-08-19T02:09:48;101335.50;;;20.79;100.00
51460;BME280;37534;39.772;2.718;2022-08-19T02:12:14;101323.88;;;20.83;100.00
51460;BME280;37534;39.772;2.718;2022-08-19T02:14:39;101327.63;;;20.79;100.00
51460;BME280;37534;39.772;2.718;2022-08-19T02:17:05;101330.25;;;20.79;100.00
51460;BME280;37534;39.772;2.718;2022-08-19T02:19:30;101332.09;;;20.77;100.00
51460;BME280;37534;39.772;2.718;2022-08-19T02:21:58;101323.41;;;20.76;100.00
51460;BME280;37534;39.772;2.718;2022-08-19T02:24:24;101326.97;;;20.75;100.00
51460;BME280;37534;39.772;2.718;2022-08-19T02:26:50;101323.56;;;20.73;100.00
51460;BME280;37534;39.772;2.718;2022-08-19T02:29:16;101331.28;;;20.76;100.00
51460;BME280;37534;39.772;2.718;2022-08-19T02:31:42;101332.75;;;20.80;100.00
51460;BME280;37534;39.772;2.718;2022-08-19T02:34:07;101333.06;;;20.90;100.00
51460;BME280;37534;39.772;2.718;2022-08-19T02:36:33;101331.94;;;20.94;100.00
51460;BME280;37534;39.772;2.718;2022-08-19T02:38:58;101319.28;;;20.72;100.00
51460;BME280;37534;39.772;2.718;2022-08-19T02:41:30;101327.41;;;20.67;100.00
51460;BME280;37534;39.772;2.718;2022-08-19T02:43:58;101336.22;;;20.66;100.00
51460;BME280;37534;39.772;2.718;2022-08-19T02:46:27;101332.06;;;20.62;100.00
51460;BME280;37534;39.772;2.718;2022-08-19T02:48:56;101330.44;;;20.76;100.00
51460;BME280;37534;39.772;2.718;2022-08-19T02:51:33;101336.50;;;20.76;100.00
51460;BME280;37534;39.772;2.718;2022-08-19T02:53:59;101328.28;;;20.68;100.00
51460;BME280;37534;39.772;2.718;2022-08-19T02:56:26;101332.00;;;20.64;100.00
51460;BME280;37534;39.772;2.718;2022-08-19T02:58:53;101326.59;;;20.51;100.00
51460;BME280;37534;39.772;2.718;2022-08-19T03:01:22;101329.88;;;20.55;100.00
51460;BME280;37534;39.772;2.718;2022-08-19T03:03:48;101335.88;;;20.57;100.00
51460;BME280;37534;39.772;2.718;2022-08-19T03:06:15;101336.72;;;20.57;100.00
51460;BME280;37534;39.772;2.718;2022-08-19T03:08:43;101329.28;;;20.49;100.00
51460;BME280;37534;39.772;2.718;2022-08-19T03:11:21;101337.00;;;20.52;100.00
51460;BME280;37534;39.772;2.718;2022-08-19T03:13:47;101338.50;;;20.57;100.00
51460;BME280;37534;39.772;2.718;2022-08-19T03:16:17;101334.78;;;20.61;100.00
51460;BME280;37534;39.772;2.718;2022-08-19T03:18:44;101336.22;;;20.66;100.00
51460;BME280;37534;39.772;2.718;2022-08-19T03:21:10;101327.50;;;20.66;100.00
51460;BME280;37534;39.772;2.718;2022-08-19T03:23:39;101334.25;;;20.70;100.00
51460;BME280;37534;39.772;2.718;2022-08-19T03:26:05;101335.22;;;20.53;100.00
51460;BME280;37534;39.772;2.718;2022-08-19T03:28:31;101346.97;;;20.46;100.00
51460;BME280;37534;39.772;2.718;2022-08-19T03:31:06;101339.94;;;20.46;100.00
51460;BME280;37534;39.772;2.718;2022-08-19T03:33:33;101341.28;;;20.54;100.00
51460;BME280;37534;39.772;2.718;2022-08-19T03:36:07;101342.50;;;20.48;100.00
51460;BME280;37534;39.772;2.718;2022-08-19T03:38:39;101353.63;;;20.51;100.00
51460;BME280;37534;39.772;2.718;2022-08-19T03:41:08;101349.34;;;20.50;100.00
51460;BME280;37534;39.772;2.718;2022-08-19T03:43:38;101341.53;;;20.35;100.00
51460;BME280;37534;39.772;2.718;2022-08-19T03:46:06;101349.22;;;20.38;100.00
51460;BME280;37534;39.772;2.718;2022-08-19T03:48:33;101351.63;;;20.41;100.00
51460;BME280;37534;39.772;2.718;2022-08-19T03:51:00;101334.25;;;20.40;100.00
51460;BME280;37534;39.772;2.718;2022-08-19T03:53:27;101340.81;;;20.47;100.00
51460;BME280;37534;39.772;2.718;2022-08-19T03:55:53;101352.97;;;20.48;100.00
51460;BME280;37534;39.772;2.718;2022-08-19T03:58:20;101351.09;;;20.50;100.00
51460;BME280;37534;39.772;2.718;2022-08-19T04:00:46;101350.19;;;20.51;100.00
51460;BME280;37534;39.772;2.718;2022-08-19T04:03:11;101345.41;;;20.43;100.00
51460;BME280;37534;39.772;2.718;2022-08-19T04:05:37;101350.09;;;20.52;100.00
51460;BME280;37534;39.772;2.718;2022-08-19T04:08:03;101360.50;;;20.54;100.00
51460;BME280;37534;39.772;2.718;2022-08-19T04:10:39;101358.72;;;20.55;100.00
51460;BME280;37534;39.772;2.718;2022-08-19T04:13:06;101355.94;;;20.58;100.00
51460;BME280;37534;39.772;2.718;2022-08-19T04:15:32;101363.44;;;20.64;100.00
51460;BME280;37534;39.772;2.718;2022-08-19T04:18:04;101365.75;;;20.54;100.00
51460;BME280;37534;39.772;2.718;2022-08-19T04:20:31;101369.56;;;20.48;100.00
51460;BME280;37534;39.772;2.718;2022-08-19T04:22:57;101369.66;;;20.47;100.00
51460;BME280;37534;39.772;2.718;2022-08-19T04:25:22;101371.53;;;20.45;100.00
51460;BME280;37534;39.772;2.718;2022-08-19T04:27:48;101372.28;;;20.47;100.00
51460;BME280;37534;39.772;2.718;2022-08-19T04:30:14;101373.03;;;20.49;100.00
51460;BME280;37534;39.772;2.718;2022-08-19T04:32:40;101377.69;;;20.44;100.00
51460;BME280;37534;39.772;2.718;2022-08-19T04:35:06;101371.25;;;20.33;100.00
51460;BME280;37534;39.772;2.718;2022-08-19T04:37:32;101358.44;;;20.29;100.00
51460;BME280;37534;39.772;2.718;2022-08-19T04:39:59;101378.88;;;20.38;100.00
51460;BME280;37534;39.772;2.718;2022-08-19T04:42:43;101367.31;;;20.26;100.00
51460;BME280;37534;39.772;2.718;2022-08-19T04:45:12;101381.41;;;20.40;100.00
51460;BME280;37534;39.772;2.718;2022-08-19T04:47:40;101386.66;;;20.40;100.00
51460;BME280;37534;39.772;2.718;2022-08-19T04:50:07;101387.50;;;20.40;100.00
51460;BME280;37534;39.772;2.718;2022-08-19T04:52:33;101387.41;;;20.42;100.00
51460;BME280;37534;39.772;2.718;2022-08-19T04:54:59;101394.25;;;20.44;100.00
51460;BME280;37534;39.772;2.718;2022-08-19T04:57:25;101394.06;;;20.47;100.00
51460;BME280;37534;39.772;2.718;2022-08-19T04:59:55;101399.41;;;20.46;100.00
51460;BME280;37534;39.772;2.718;2022-08-19T05:02:21;101397.81;;;20.43;100.00
51460;BME280;37534;39.772;2.718;2022-08-19T05:04:59;101403.06;;;20.43;100.00
51460;BME280;37534;39.772;2.718;2022-08-19T05:07:26;101412.50;;;20.46;100.00
51460;BME280;37534;39.772;2.718;2022-08-19T05:09:52;101409.97;;;20.44;100.00
51460;BME280;37534;39.772;2.718;2022-08-19T05:12:18;101409.13;;;20.44;100.00
51460;BME280;37534;39.772;2.718;2022-08-19T05:14:44;101412.66;;;20.43;100.00
51460;BME280;37534;39.772;2.718;2022-08-19T05:17:13;101404.34;;;20.36;100.00
51460;BME280;37534;39.772;2.718;2022-08-19T05:19:38;101416.91;;;20.45;100.00
51460;BME280;37534;39.772;2.718;2022-08-19T05:22:22;101421.13;;;20.48;100.00
51460;BME280;37534;39.772;2.718;2022-08-19T05:24:57;101422.00;;;20.48;100.00
51460;BME280;37534;39.772;2.718;2022-08-19T05:27:23;101424.59;;;20.48;100.00
51460;BME280;37534;39.772;2.718;2022-08-19T05:29:48;101420.38;;;20.46;100.00
51460;BME280;37534;39.772;2.718;2022-08-19T05:32:14;101429.56;;;20.53;100.00
51460;BME280;37534;39.772;2.718;2022-08-19T05:34:39;101431.19;;;20.56;100.00
51460;BME280;37534;39.772;2.718;2022-08-19T05:37:06;101430.91;;;20.60;100.00
51460;BME280;37534;39.772;2.718;2022-08-19T05:39:34;101429.16;;;20.61;100.00
51460;BME280;37534;39.772;2.718;2022-08-19T05:42:04;101434.31;;;20.62;100.00
51460;BME280;37534;39.772;2.718;2022-08-19T05:44:33;101439.41;;;20.65;100.00
51460;BME280;37534;39.772;2.718;2022-08-19T05:47:01;101439.22;;;20.68;100.00
51460;BME280;37534;39.772;2.718;2022-08-19T05:49:29;101413.09;;;20.51;100.00
51460;BME280;37534;39.772;2.718;2022-08-19T05:51:55;101439.22;;;20.68;100.00
51460;BME280;37534;39.772;2.718;2022-08-19T05:54:21;101435.09;;;20.64;100.00
51460;BME280;37534;39.772;2.718;2022-08-19T05:56:49;101445.97;;;20.73;100.00
51460;BME280;37534;39.772;2.718;2022-08-19T05:59:16;101406.72;;;20.55;100.00
51460;BME280;37534;39.772;2.718;2022-08-19T06:01:45;101442.25;;;20.77;100.00
51460;BME280;37534;39.772;2.718;2022-08-19T06:04:12;101447.31;;;20.80;100.00
51460;BME280;37534;39.772;2.718;2022-08-19T06:06:45;101435.50;;;20.73;100.00
51460;BME280;37534;39.772;2.718;2022-08-19T06:09:11;101454.19;;;20.82;100.00
51460;BME280;37534;39.772;2.718;2022-08-19T06:11:41;101452.81;;;20.91;100.00
51460;BME280;37534;39.772;2.718;2022-08-19T06:14:11;101452.53;;;20.96;100.00
51460;BME280;37534;39.772;2.718;2022-08-19T06:16:38;101444.75;;;20.94;100.00
51460;BME280;37534;39.772;2.718;2022-08-19T06:19:07;101445.41;;;20.98;100.00
51460;BME280;37534;39.772;2.718;2022-08-19T06:21:34;101447.94;;;20.99;100.00
51460;BME280;37534;39.772;2.718;2022-08-19T06:24:04;101433.63;;;21.05;100.00
51460;BME280;37534;39.772;2.718;2022-08-19T06:26:29;101455.88;;;21.28;100.00
51460;BME280;37534;39.772;2.718;2022-08-19T06:28:55;101453.47;;;21.25;100.00
51460;BME280;37534;39.772;2.718;2022-08-19T06:31:25;101461.91;;;21.30;100.00
51460;BME280;37534;39.772;2.718;2022-08-19T06:33:51;101464.06;;;21.38;100.00
51460;BME280;37534;39.772;2.718;2022-08-19T06:38:42;101461.75;;;21.62;100.00
51460;BME280;37534;39.772;2.718;2022-08-19T06:41:08;101453.91;;;21.76;100.00
51460;BME280;37534;39.772;2.718;2022-08-19T06:43:34;101460.25;;;21.87;100.00
51460;BME280;37534;39.772;2.718;2022-08-19T06:46:01;101456.19;;;22.10;100.00
51460;BME280;37534;39.772;2.718;2022-08-19T06:48:29;101453.84;;;22.19;100.00
51460;BME280;37534;39.772;2.718;2022-08-19T06:50:54;101469.03;;;22.43;100.00
51460;BME280;37534;39.772;2.718;2022-08-19T06:53:21;101465.41;;;22.58;100.00
51460;BME280;37534;39.772;2.718;2022-08-19T06:55:46;101471.16;;;22.78;100.00
51460;BME280;37534;39.772;2.718;2022-08-19T06:58:12;101470.91;;;22.95;100.00
51460;BME280;37534;39.772;2.718;2022-08-19T07:00:38;101462.97;;;23.10;100.00
51460;BME280;37534;39.772;2.718;2022-08-19T07:03:04;101481.00;;;23.42;100.00
51460;BME280;37534;39.772;2.718;2022-08-19T07:05:30;101474.25;;;23.63;100.00
51460;BME280;37534;39.772;2.718;2022-08-19T07:07:55;101476.03;;;23.88;100.00
51460;BME280;37534;39.772;2.718;2022-08-19T07:10:22;101482.94;;;24.15;100.00
51460;BME280;37534;39.772;2.718;2022-08-19T07:12:47;101478.44;;;24.41;100.00
51460;BME280;37534;39.772;2.718;2022-08-19T07:15:15;101485.94;;;24.72;100.00
51460;BME280;37534;39.772;2.718;2022-08-19T07:17:41;101480.50;;;24.97;100.00
51460;BME280;37534;39.772;2.718;2022-08-19T07:20:09;101483.84;;;25.23;100.00
51460;BME280;37534;39.772;2.718;2022-08-19T07:22:39;101482.22;;;25.45;100.00
51460;BME280;37534;39.772;2.718;2022-08-19T07:25:07;101490.78;;;25.71;100.00
51460;BME280;37534;39.772;2.718;2022-08-19T07:27:33;101493.31;;;25.95;100.00
51460;BME280;37534;39.772;2.718;2022-08-19T07:30:00;101490.78;;;26.16;100.00
51460;BME280;37534;39.772;2.718;2022-08-19T07:32:25;101491.31;;;26.43;100.00
51460;BME280;37534;39.772;2.718;2022-08-19T07:34:52;101504.03;;;26.60;100.00
51460;BME280;37534;39.772;2.718;2022-08-19T07:37:17;101502.53;;;26.79;100.00
51460;BME280;37534;39.772;2.718;2022-08-19T07:39:43;101493.84;;;26.88;100.00
51460;BME280;37534;39.772;2.718;2022-08-19T07:42:10;101503.88;;;27.05;100.00
51460;BME280;37534;39.772;2.718;2022-08-19T07:44:36;101497.03;;;27.03;99.34
51460;BME280;37534;39.772;2.718;2022-08-19T07:47:03;101496.38;;;27.10;100.00
51460;BME280;37534;39.772;2.718;2022-08-19T07:49:29;101504.97;;;27.24;89.55
51460;BME280;37534;39.772;2.718;2022-08-19T07:52:00;101503.00;;;27.37;92.63
51460;BME280;37534;39.772;2.718;2022-08-19T07:54:29;101505.31;;;27.52;91.86
51460;BME280;37534;39.772;2.718;2022-08-19T07:56:56;101509.97;;;27.59;93.08
51460;BME280;37534;39.772;2.718;2022-08-19T07:59:23;101508.59;;;27.65;91.10
51460;BME280;37534;39.772;2.718;2022-08-19T08:01:49;101505.69;;;27.68;89.67
51460;BME280;37534;39.772;2.718;2022-08-19T08:04:15;101499.44;;;27.79;85.50
51460;BME280;37534;39.772;2.718;2022-08-19T08:07:00;101504.69;;;28.00;84.10
51460;BME280;37534;39.772;2.718;2022-08-19T08:09:44;101507.28;;;28.21;83.24
51460;BME280;37534;39.772;2.718;2022-08-19T08:12:17;101518.50;;;28.44;79.95
51460;BME280;37534;39.772;2.718;2022-08-19T08:14:45;101515.75;;;28.55;78.48
51460;BME280;37534;39.772;2.718;2022-08-19T08:17:13;101512.25;;;28.55;78.44
51460;BME280;37534;39.772;2.718;2022-08-19T08:19:40;101512.09;;;28.47;78.67
51460;BME280;37534;39.772;2.718;2022-08-19T08:22:09;101523.81;;;28.34;78.86
51460;BME280;37534;39.772;2.718;2022-08-19T08:24:55;101511.88;;;28.09;79.97
51460;BME280;37534;39.772;2.718;2022-08-19T08:27:24;101523.44;;;28.08;80.91
51460;BME280;37534;39.772;2.718;2022-08-19T08:29:50;101521.34;;;28.02;80.33
51460;BME280;37534;39.772;2.718;2022-08-19T08:32:15;101517.44;;;28.06;80.53
51460;BME280;37534;39.772;2.718;2022-08-19T08:34:41;101524.91;;;28.32;79.59
51460;BME280;37534;39.772;2.718;2022-08-19T08:37:07;101522.47;;;28.79;75.74
51460;BME280;37534;39.772;2.718;2022-08-19T08:39:33;101507.94;;;29.22;71.28
51460;BME280;37534;39.772;2.718;2022-08-19T08:42:11;101512.56;;;29.67;69.59
51460;BME280;37534;39.772;2.718;2022-08-19T08:45:03;101524.09;;;30.23;67.19
51460;BME280;37534;39.772;2.718;2022-08-19T08:47:35;101517.16;;;30.58;64.58
51460;BME280;37534;39.772;2.718;2022-08-19T08:50:08;101513.88;;;30.82;63.62
51460;BME280;37534;39.772;2.718;2022-08-19T08:52:43;101516.19;;;30.77;63.70
51460;BME280;37534;39.772;2.718;2022-08-19T08:55:14;101528.97;;;30.92;61.29
51460;BME280;37534;39.772;2.718;2022-08-19T09:00:18;101529.50;;;31.65;59.01
51460;BME280;37534;39.772;2.718;2022-08-19T09:02:44;101540.81;;;32.28;57.57
